sensor_id;sensor_type;location;lat;lon;timestamp;P1;durP1;ratioP1;P2;durP2;ratioP2
6113;SDS011;3087;48.392;10.836;2022-12-28T00:01:10;7.87;;;5.67;;
6113;SDS011;3087;48.392;10.836;2022-12-28T00:03:46;8.03;;;6.13;;
6113;SDS011;3087;48.392;10.836;2022-12-28T00:06:13;7.53;;;6.10;;
6113;SDS011;3087;48.392;10.836;2022-12-28T00:08:41;8.37;;;5.90;;
6113;SDS011;3087;48.392;10.836;2022-12-28T00:11:09;7.40;;;6.03;;
6113;SDS011;3087;48.392;10.836;2022-12-28T00:13:37;7.73;;;5.60;;
6113;SDS011;3087;48.392;10.836;2022-12-28T00:16:09;9.00;;;5.73;;
6113;SDS011;3087;48.392;10.836;2022-12-28T00:18:44;7.70;;;5.67;;
6113;SDS011;3087;48.392;10.836;2022-12-28T00:21:10;7.67;;;5.90;;
6113;SDS011;3087;48.392;10.836;2022-12-28T00:23:36;9.13;;;6.40;;
6113;SDS011;3087;48.392;10.836;2022-12-28T00:26:05;9.00;;;7.37;;
6113;SDS011;3087;48.392;10.836;2022-12-28T00:28:32;9.30;;;6.70;;
6113;SDS011;3087;48.392;10.836;2022-12-28T00:30:58;9.17;;;7.07;;
6113;SDS011;3087;48.392;10.836;2022-12-28T00:33:24;8.37;;;6.20;;
6113;SDS011;3087;48.392;10.836;2022-12-28T00:35:53;9.53;;;6.90;;
6113;SDS011;3087;48.392;10.836;2022-12-28T00:38:22;7.80;;;6.03;;
6113;SDS011;3087;48.392;10.836;2022-12-28T00:40:48;9.03;;;6.33;;
6113;SDS011;3087;48.392;10.836;2022-12-28T00:43:13;7.67;;;5.67;;
6113;SDS011;3087;48.392;10.836;2022-12-28T00:45:42;6.77;;;6.03;;
6113;SDS011;3087;48.392;10.836;2022-12-28T00:48:09;7.47;;;5.53;;
6113;SDS011;3087;48.392;10.836;2022-12-28T00:50:35;9.80;;;7.03;;
6113;SDS011;3087;48.392;10.836;2022-12-28T00:53:00;7.53;;;6.00;;
6113;SDS011;3087;48.392;10.836;2022-12-28T00:55:26;8.27;;;6.10;;
6113;SDS011;3087;48.392;10.836;2022-12-28T00:57:52;8.67;;;6.73;;
6113;SDS011;3087;48.392;10.836;2022-12-28T01:00:17;8.60;;;5.93;;
6113;SDS011;3087;48.392;10.836;2022-12-28T01:02:43;8.43;;;6.23;;
6113;SDS011;3087;48.392;10.836;2022-12-28T01:05:08;10.27;;;6.70;;
6113;SDS011;3087;48.392;10.836;2022-12-28T01:07:34;7.07;;;5.53;;
6113;SDS011;3087;48.392;10.836;2022-12-28T01:09:59;6.90;;;5.70;;
6113;SDS011;3087;48.392;10.836;2022-12-28T01:12:25;8.73;;;6.17;;
6113;SDS011;3087;48.392;10.836;2022-12-28T01:14:52;6.83;;;5.53;;
6113;SDS011;3087;48.392;10.836;2022-12-28T01:17:17;6.30;;;5.20;;
6113;SDS011;3087;48.392;10.836;2022-12-28T01:19:43;7.27;;;5.73;;
6113;SDS011;3087;48.392;10.836;2022-12-28T01:22:08;6.07;;;5.40;;
6113;SDS011;3087;48.392;10.836;2022-12-28T01:24:34;7.77;;;4.97;;
6113;SDS011;3087;48.392;10.836;2022-12-28T01:27:00;8.93;;;5.60;;
6113;SDS011;3087;48.392;10.836;2022-12-28T01:29:25;7.60;;;5.40;;
6113;SDS011;3087;48.392;10.836;2022-12-28T01:31:51;7.63;;;5.60;;
6113;SDS011;3087;48.392;10.836;2022-12-28T01:34:17;7.47;;;4.80;;
6113;SDS011;3087;48.392;10.836;2022-12-28T01:36:42;8.10;;;5.17;;
6113;SDS011;3087;48.392;10.836;2022-12-28T01:39:08;8.50;;;5.20;;
6113;SDS011;3087;48.392;10.836;2022-12-28T01:41:35;7.93;;;6.07;;
6113;SDS011;3087;48.392;10.836;2022-12-28T01:49:29;6.50;;;4.77;;
6113;SDS011;3087;48.392;10.836;2022-12-28T01:57:16;6.30;;;4.70;;
6113;SDS011;3087;48.392;10.836;2022-12-28T01:59:48;6.47;;;5.77;;
6113;SDS011;3087;48.392;10.836;2022-12-28T02:02:18;8.80;;;5.47;;
6113;SDS011;3087;48.392;10.836;2022-12-28T02:04:45;8.50;;;5.57;;
6113;SDS011;3087;48.392;10.836;2022-12-28T02:07:13;9.07;;;7.53;;
6113;SDS011;3087;48.392;10.836;2022-12-28T02:09:43;8.37;;;6.93;;
6113;SDS011;3087;48.392;10.836;2022-12-28T02:12:09;11.67;;;10.40;;
6113;SDS011;3087;48.392;10.836;2022-12-28T02:14:37;7.77;;;6.30;;
6113;SDS011;3087;48.392;10.836;2022-12-28T02:17:04;8.73;;;6.40;;
6113;SDS011;3087;48.392;10.836;2022-12-28T02:19:45;8.97;;;6.67;;
6113;SDS011;3087;48.392;10.836;2022-12-28T02:28:00;6.27;;;5.43;;
6113;SDS011;3087;48.392;10.836;2022-12-28T02:30:42;8.33;;;6.17;;
6113;SDS011;3087;48.392;10.836;2022-12-28T02:33:17;7.93;;;6.07;;
6113;SDS011;3087;48.392;10.836;2022-12-28T02:35:56;6.57;;;5.87;;
6113;SDS011;3087;48.392;10.836;2022-12-28T02:38:30;8.70;;;5.90;;
6113;SDS011;3087;48.392;10.836;2022-12-28T02:41:07;7.57;;;5.47;;
6113;SDS011;3087;48.392;10.836;2022-12-28T02:43:37;9.57;;;5.80;;
6113;SDS011;3087;48.392;10.836;2022-12-28T02:46:10;7.93;;;6.00;;
6113;SDS011;3087;48.392;10.836;2022-12-28T02:49:07;7.27;;;5.83;;
6113;SDS011;3087;48.392;10.836;2022-12-28T03:06:32;6.50;;;5.20;;
6113;SDS011;3087;48.392;10.836;2022-12-28T03:09:36;6.30;;;5.30;;
6113;SDS011;3087;48.392;10.836;2022-12-28T03:12:29;8.47;;;5.70;;
6113;SDS011;3087;48.392;10.836;2022-12-28T03:15:07;7.63;;;6.00;;
6113;SDS011;3087;48.392;10.836;2022-12-28T03:17:38;7.77;;;5.20;;
6113;SDS011;3087;48.392;10.836;2022-12-28T03:20:26;5.80;;;4.80;;
6113;SDS011;3087;48.392;10.836;2022-12-28T03:23:15;6.50;;;5.17;;
6113;SDS011;3087;48.392;10.836;2022-12-28T03:26:03;5.60;;;5.00;;
6113;SDS011;3087;48.392;10.836;2022-12-28T03:28:51;4.87;;;4.03;;
6113;SDS011;3087;48.392;10.836;2022-12-28T03:31:38;4.93;;;4.00;;
6113;SDS011;3087;48.392;10.836;2022-12-28T03:34:03;7.13;;;4.97;;
6113;SDS011;3087;48.392;10.836;2022-12-28T03:39:03;5.77;;;4.47;;
6113;SDS011;3087;48.392;10.836;2022-12-28T03:41:57;5.90;;;4.30;;
6113;SDS011;3087;48.392;10.836;2022-12-28T03:44:51;5.67;;;3.90;;
6113;SDS011;3087;48.392;10.836;2022-12-28T03:47:20;4.90;;;4.07;;
6113;SDS011;3087;48.392;10.836;2022-12-28T03:49:49;6.57;;;4.37;;
6113;SDS011;3087;48.392;10.836;2022-12-28T03:52:15;5.33;;;4.00;;
6113;SDS011;3087;48.392;10.836;2022-12-28T03:54:42;7.63;;;4.63;;
6113;SDS011;3087;48.392;10.836;2022-12-28T03:57:08;4.10;;;3.17;;
6113;SDS011;3087;48.392;10.836;2022-12-28T03:59:34;4.63;;;2.90;;
6113;SDS011;3087;48.392;10.836;2022-12-28T04:01:59;4.53;;;3.20;;
6113;SDS011;3087;48.392;10.836;2022-12-28T04:04:25;3.43;;;2.87;;
6113;SDS011;3087;48.392;10.836;2022-12-28T04:06:50;3.53;;;2.73;;
6113;SDS011;3087;48.392;10.836;2022-12-28T04:09:16;5.23;;;2.63;;
6113;SDS011;3087;48.392;10.836;2022-12-28T04:11:42;3.13;;;2.70;;
6113;SDS011;3087;48.392;10.836;2022-12-28T04:14:07;3.10;;;2.50;;
6113;SDS011;3087;48.392;10.836;2022-12-28T04:16:33;3.50;;;2.53;;
6113;SDS011;3087;48.392;10.836;2022-12-28T04:19:00;7.67;;;2.53;;
6113;SDS011;3087;48.392;10.836;2022-12-28T04:21:25;2.90;;;2.50;;
6113;SDS011;3087;48.392;10.836;2022-12-28T04:23:51;2.40;;;2.20;;
6113;SDS011;3087;48.392;10.836;2022-12-28T04:26:16;5.47;;;2.30;;
6113;SDS011;3087;48.392;10.836;2022-12-28T04:28:42;3.23;;;2.27;;
6113;SDS011;3087;48.392;10.836;2022-12-28T04:31:09;4.47;;;2.63;;
6113;SDS011;3087;48.392;10.836;2022-12-28T04:33:38;2.90;;;2.60;;
6113;SDS011;3087;48.392;10.836;2022-12-28T04:36:04;3.10;;;2.77;;
6113;SDS011;3087;48.392;10.836;2022-12-28T04:38:30;3.70;;;2.67;;
6113;SDS011;3087;48.392;10.836;2022-12-28T04:40:58;2.40;;;2.20;;
6113;SDS011;3087;48.392;10.836;2022-12-28T04:43:24;2.50;;;2.30;;
6113;SDS011;3087;48.392;10.836;2022-12-28T04:45:56;2.30;;;2.10;;
6113;SDS011;3087;48.392;10.836;2022-12-28T04:48:23;3.73;;;2.50;;
6113;SDS011;3087;48.392;10.836;2022-12-28T04:50:49;2.47;;;1.87;;
6113;SDS011;3087;48.392;10.836;2022-12-28T04:53:16;4.50;;;2.00;;
6113;SDS011;3087;48.392;10.836;2022-12-28T04:55:41;2.27;;;2.07;;
6113;SDS011;3087;48.392;10.836;2022-12-28T04:58:07;2.77;;;2.50;;
6113;SDS011;3087;48.392;10.836;2022-12-28T05:00:33;2.63;;;2.33;;
6113;SDS011;3087;48.392;10.836;2022-12-28T05:02:58;3.10;;;2.43;;
6113;SDS011;3087;48.392;10.836;2022-12-28T05:05:24;2.57;;;2.20;;
6113;SDS011;3087;48.392;10.836;2022-12-28T05:07:51;5.40;;;2.10;;
6113;SDS011;3087;48.392;10.836;2022-12-28T05:10:16;1.90;;;1.80;;
6113;SDS011;3087;48.392;10.836;2022-12-28T05:12:42;2.90;;;2.20;;
6113;SDS011;3087;48.392;10.836;2022-12-28T05:15:08;2.77;;;2.43;;
6113;SDS011;3087;48.392;10.836;2022-12-28T05:17:34;3.43;;;2.70;;
6113;SDS011;3087;48.392;10.836;2022-12-28T05:19:59;3.27;;;2.97;;
6113;SDS011;3087;48.392;10.836;2022-12-28T05:22:25;3.60;;;2.10;;
6113;SDS011;3087;48.392;10.836;2022-12-28T05:24:51;3.23;;;2.20;;
6113;SDS011;3087;48.392;10.836;2022-12-28T05:27:17;2.50;;;2.03;;
6113;SDS011;3087;48.392;10.836;2022-12-28T05:29:42;2.40;;;1.90;;
6113;SDS011;3087;48.392;10.836;2022-12-28T05:32:08;2.70;;;2.50;;
6113;SDS011;3087;48.392;10.836;2022-12-28T05:34:33;2.43;;;2.23;;
6113;SDS011;3087;48.392;10.836;2022-12-28T05:36:59;3.30;;;2.50;;
6113;SDS011;3087;48.392;10.836;2022-12-28T05:39:24;4.97;;;2.63;;
6113;SDS011;3087;48.392;10.836;2022-12-28T05:41:50;2.53;;;2.30;;
6113;SDS011;3087;48.392;10.836;2022-12-28T05:44:16;2.30;;;2.10;;
6113;SDS011;3087;48.392;10.836;2022-12-28T05:46:41;3.50;;;2.53;;
6113;SDS011;3087;48.392;10.836;2022-12-28T05:49:07;5.00;;;2.20;;
6113;SDS011;3087;48.392;10.836;2022-12-28T05:51:33;4.90;;;2.77;;
6113;SDS011;3087;48.392;10.836;2022-12-28T05:53:59;2.70;;;2.50;;
6113;SDS011;3087;48.392;10.836;2022-12-28T05:56:29;3.20;;;2.80;;
6113;SDS011;3087;48.392;10.836;2022-12-28T05:58:57;4.47;;;3.10;;
6113;SDS011;3087;48.392;10.836;2022-12-28T06:01:25;5.43;;;3.13;;
6113;SDS011;3087;48.392;10.836;2022-12-28T06:03:57;4.33;;;2.90;;
6113;SDS011;3087;48.392;10.836;2022-12-28T06:06:24;3.67;;;3.13;;
6113;SDS011;3087;48.392;10.836;2022-12-28T06:08:51;3.30;;;2.60;;
6113;SDS011;3087;48.392;10.836;2022-12-28T06:11:21;3.23;;;2.47;;
6113;SDS011;3087;48.392;10.836;2022-12-28T06:13:49;4.20;;;2.47;;
6113;SDS011;3087;48.392;10.836;2022-12-28T06:16:16;3.43;;;2.40;;
6113;SDS011;3087;48.392;10.836;2022-12-28T06:18:43;3.27;;;2.37;;
6113;SDS011;3087;48.392;10.836;2022-12-28T06:21:16;2.47;;;2.00;;
6113;SDS011;3087;48.392;10.836;2022-12-28T06:23:44;4.43;;;2.30;;
6113;SDS011;3087;48.392;10.836;2022-12-28T06:26:11;3.07;;;2.20;;
6113;SDS011;3087;48.392;10.836;2022-12-28T06:28:39;3.83;;;2.20;;
6113;SDS011;3087;48.392;10.836;2022-12-28T06:31:06;2.40;;;2.20;;
6113;SDS011;3087;48.392;10.836;2022-12-28T06:33:32;2.40;;;2.10;;
6113;SDS011;3087;48.392;10.836;2022-12-28T06:35:58;4.40;;;2.20;;
6113;SDS011;3087;48.392;10.836;2022-12-28T06:38:25;4.77;;;2.30;;
6113;SDS011;3087;48.392;10.836;2022-12-28T06:40:51;7.17;;;2.70;;
6113;SDS011;3087;48.392;10.836;2022-12-28T06:43:18;3.47;;;2.20;;
6113;SDS011;3087;48.392;10.836;2022-12-28T06:45:53;3.97;;;2.80;;
6113;SDS011;3087;48.392;10.836;2022-12-28T06:48:21;3.43;;;2.33;;
6113;SDS011;3087;48.392;10.836;2022-12-28T06:50:55;2.67;;;2.00;;
6113;SDS011;3087;48.392;10.836;2022-12-28T06:53:32;2.40;;;2.03;;
6113;SDS011;3087;48.392;10.836;2022-12-28T06:56:00;2.10;;;1.90;;
6113;SDS011;3087;48.392;10.836;2022-12-28T06:58:28;3.97;;;3.17;;
6113;SDS011;3087;48.392;10.836;2022-12-28T07:00:54;2.43;;;2.03;;
6113;SDS011;3087;48.392;10.836;2022-12-28T07:03:20;4.23;;;2.40;;
6113;SDS011;3087;48.392;10.836;2022-12-28T07:05:47;2.93;;;2.10;;
6113;SDS011;3087;48.392;10.836;2022-12-28T07:08:13;3.67;;;1.90;;
6113;SDS011;3087;48.392;10.836;2022-12-28T07:10:39;5.17;;;2.50;;
6113;SDS011;3087;48.392;10.836;2022-12-28T07:13:05;2.57;;;2.20;;
6113;SDS011;3087;48.392;10.836;2022-12-28T07:15:30;5.47;;;2.70;;
6113;SDS011;3087;48.392;10.836;2022-12-28T07:17:59;3.63;;;2.53;;
6113;SDS011;3087;48.392;10.836;2022-12-28T07:20:25;2.73;;;2.17;;
6113;SDS011;3087;48.392;10.836;2022-12-28T07:22:51;2.10;;;1.90;;
6113;SDS011;3087;48.392;10.836;2022-12-28T07:25:18;3.10;;;1.73;;
6113;SDS011;3087;48.392;10.836;2022-12-28T07:27:44;2.33;;;2.13;;
6113;SDS011;3087;48.392;10.836;2022-12-28T07:30:10;2.33;;;2.13;;
6113;SDS011;3087;48.392;10.836;2022-12-28T07:32:36;3.47;;;2.13;;
6113;SDS011;3087;48.392;10.836;2022-12-28T07:35:03;5.20;;;2.43;;
6113;SDS011;3087;48.392;10.836;2022-12-28T07:37:29;2.73;;;2.17;;
6113;SDS011;3087;48.392;10.836;2022-12-28T07:39:55;4.13;;;2.43;;
6113;SDS011;3087;48.392;10.836;2022-12-28T07:42:20;2.70;;;2.30;;
6113;SDS011;3087;48.392;10.836;2022-12-28T07:44:46;4.87;;;2.40;;
6113;SDS011;3087;48.392;10.836;2022-12-28T07:47:12;3.47;;;2.40;;
6113;SDS011;3087;48.392;10.836;2022-12-28T07:49:38;3.13;;;2.10;;
6113;SDS011;3087;48.392;10.836;2022-12-28T07:52:04;2.20;;;2.00;;
6113;SDS011;3087;48.392;10.836;2022-12-28T07:54:31;2.50;;;2.10;;
6113;SDS011;3087;48.392;10.836;2022-12-28T07:56:57;2.93;;;2.63;;
6113;SDS011;3087;48.392;10.836;2022-12-28T07:59:23;4.10;;;2.10;;
6113;SDS011;3087;48.392;10.836;2022-12-28T08:01:49;2.90;;;1.90;;
6113;SDS011;3087;48.392;10.836;2022-12-28T08:04:15;1.73;;;1.63;;
6113;SDS011;3087;48.392;10.836;2022-12-28T08:06:42;1.93;;;1.80;;
6113;SDS011;3087;48.392;10.836;2022-12-28T08:09:09;4.83;;;1.70;;
6113;SDS011;3087;48.392;10.836;2022-12-28T08:11:37;2.10;;;1.90;;
6113;SDS011;3087;48.392;10.836;2022-12-28T08:14:05;2.77;;;2.20;;
6113;SDS011;3087;48.392;10.836;2022-12-28T08:16:32;3.00;;;2.07;;
6113;SDS011;3087;48.392;10.836;2022-12-28T08:19:00;4.73;;;2.33;;
6113;SDS011;3087;48.392;10.836;2022-12-28T08:21:27;2.90;;;1.80;;
6113;SDS011;3087;48.392;10.836;2022-12-28T08:23:58;3.07;;;2.10;;
6113;SDS011;3087;48.392;10.836;2022-12-28T08:26:29;2.87;;;1.80;;
6113;SDS011;3087;48.392;10.836;2022-12-28T08:28:57;3.10;;;2.07;;
6113;SDS011;3087;48.392;10.836;2022-12-28T08:31:26;2.80;;;2.03;;
6113;SDS011;3087;48.392;10.836;2022-12-28T08:33:53;2.23;;;1.93;;
6113;SDS011;3087;48.392;10.836;2022-12-28T08:36:20;3.50;;;2.37;;
6113;SDS011;3087;48.392;10.836;2022-12-28T08:38:46;2.27;;;1.97;;
6113;SDS011;3087;48.392;10.836;2022-12-28T08:41:13;2.63;;;2.30;;
6113;SDS011;3087;48.392;10.836;2022-12-28T08:43:42;3.93;;;2.20;;
6113;SDS011;3087;48.392;10.836;2022-12-28T08:46:12;3.20;;;2.10;;
6113;SDS011;3087;48.392;10.836;2022-12-28T08:48:42;3.20;;;2.03;;
6113;SDS011;3087;48.392;10.836;2022-12-28T08:51:09;1.97;;;1.80;;
6113;SDS011;3087;48.392;10.836;2022-12-28T08:53:37;2.97;;;2.20;;
6113;SDS011;3087;48.392;10.836;2022-12-28T08:56:07;1.80;;;1.70;;
6113;SDS011;3087;48.392;10.836;2022-12-28T08:58:36;3.83;;;2.10;;
6113;SDS011;3087;48.392;10.836;2022-12-28T09:03:39;2.73;;;1.80;;
6113;SDS011;3087;48.392;10.836;2022-12-28T09:06:07;2.23;;;2.07;;
6113;SDS011;3087;48.392;10.836;2022-12-28T09:08:34;2.43;;;2.00;;
6113;SDS011;3087;48.392;10.836;2022-12-28T09:11:01;3.00;;;2.03;;
6113;SDS011;3087;48.392;10.836;2022-12-28T09:13:28;2.47;;;1.77;;
6113;SDS011;3087;48.392;10.836;2022-12-28T09:15:55;3.07;;;2.10;;
6113;SDS011;3087;48.392;10.836;2022-12-28T09:18:21;4.30;;;2.00;;
6113;SDS011;3087;48.392;10.836;2022-12-28T09:20:47;3.50;;;2.37;;
6113;SDS011;3087;48.392;10.836;2022-12-28T09:23:12;1.90;;;1.70;;
6113;SDS011;3087;48.392;10.836;2022-12-28T09:25:39;2.20;;;1.67;;
6113;SDS011;3087;48.392;10.836;2022-12-28T09:28:04;2.93;;;1.90;;
6113;SDS011;3087;48.392;10.836;2022-12-28T09:30:30;3.60;;;2.07;;
6113;SDS011;3087;48.392;10.836;2022-12-28T09:32:55;2.60;;;1.80;;
6113;SDS011;3087;48.392;10.836;2022-12-28T09:35:41;1.67;;;1.57;;
6113;SDS011;3087;48.392;10.836;2022-12-28T09:38:07;2.93;;;1.90;;
6113;SDS011;3087;48.392;10.836;2022-12-28T09:40:33;2.70;;;1.70;;
6113;SDS011;3087;48.392;10.836;2022-12-28T09:42:59;2.03;;;1.73;;
6113;SDS011;3087;48.392;10.836;2022-12-28T09:45:25;2.67;;;1.90;;
6113;SDS011;3087;48.392;10.836;2022-12-28T09:47:51;2.00;;;1.80;;
6113;SDS011;3087;48.392;10.836;2022-12-28T09:50:26;2.10;;;1.90;;
6113;SDS011;3087;48.392;10.836;2022-12-28T09:55:22;2.30;;;1.80;;
6113;SDS011;3087;48.392;10.836;2022-12-28T09:57:50;2.67;;;1.90;;
6113;SDS011;3087;48.392;10.836;2022-12-28T10:00:23;2.70;;;2.03;;
6113;SDS011;3087;48.392;10.836;2022-12-28T10:03:01;1.80;;;1.70;;
6113;SDS011;3087;48.392;10.836;2022-12-28T10:05:29;4.60;;;2.20;;
6113;SDS011;3087;48.392;10.836;2022-12-28T10:07:56;4.03;;;1.90;;
6113;SDS011;3087;48.392;10.836;2022-12-28T10:10:26;2.23;;;1.83;;
6113;SDS011;3087;48.392;10.836;2022-12-28T10:12:53;2.20;;;1.90;;
6113;SDS011;3087;48.392;10.836;2022-12-28T10:15:19;1.70;;;1.60;;
6113;SDS011;3087;48.392;10.836;2022-12-28T10:17:47;5.90;;;1.60;;
6113;SDS011;3087;48.392;10.836;2022-12-28T10:20:13;2.17;;;1.40;;
6113;SDS011;3087;48.392;10.836;2022-12-28T10:22:42;2.20;;;1.73;;
6113;SDS011;3087;48.392;10.836;2022-12-28T10:25:19;2.80;;;1.83;;
6113;SDS011;3087;48.392;10.836;2022-12-28T10:27:47;2.27;;;1.67;;
6113;SDS011;3087;48.392;10.836;2022-12-28T10:30:15;1.97;;;1.70;;
6113;SDS011;3087;48.392;10.836;2022-12-28T10:32:51;1.83;;;1.67;;
6113;SDS011;3087;48.392;10.836;2022-12-28T10:35:23;2.43;;;1.83;;
6113;SDS011;3087;48.392;10.836;2022-12-28T10:41:09;4.65;;;3.00;;
6113;SDS011;3087;48.392;10.836;2022-12-28T10:43:40;3.75;;;2.03;;
6113;SDS011;3087;48.392;10.836;2022-12-28T10:46:19;2.78;;;2.05;;
6113;SDS011;3087;48.392;10.836;2022-12-28T10:48:54;2.08;;;1.88;;
6113;SDS011;3087;48.392;10.836;2022-12-28T10:51:23;4.28;;;2.63;;
6113;SDS011;3087;48.392;10.836;2022-12-28T10:53:51;3.42;;;1.70;;
6113;SDS011;3087;48.392;10.836;2022-12-28T10:56:31;1.80;;;1.50;;
6113;SDS011;3087;48.392;10.836;2022-12-28T11:01:37;2.40;;;1.88;;
6113;SDS011;3087;48.392;10.836;2022-12-28T11:09:25;2.15;;;1.63;;
6113;SDS011;3087;48.392;10.836;2022-12-28T11:11:52;2.28;;;1.55;;
6113;SDS011;3087;48.392;10.836;2022-12-28T11:14:24;1.67;;;1.50;;
6113;SDS011;3087;48.392;10.836;2022-12-28T11:16:54;2.90;;;1.73;;
6113;SDS011;3087;48.392;10.836;2022-12-28T11:19:20;1.95;;;1.75;;
6113;SDS011;3087;48.392;10.836;2022-12-28T11:21:47;3.53;;;1.73;;
6113;SDS011;3087;48.392;10.836;2022-12-28T11:24:13;2.53;;;1.83;;
6113;SDS011;3087;48.392;10.836;2022-12-28T11:26:42;2.58;;;1.65;;
6113;SDS011;3087;48.392;10.836;2022-12-28T11:29:09;2.58;;;1.45;;
6113;SDS011;3087;48.392;10.836;2022-12-28T11:31:39;3.97;;;2.13;;
6113;SDS011;3087;48.392;10.836;2022-12-28T11:34:16;2.35;;;1.67;;
6113;SDS011;3087;48.392;10.836;2022-12-28T11:36:43;2.83;;;1.90;;
6113;SDS011;3087;48.392;10.836;2022-12-28T11:41:57;2.00;;;1.70;;
6113;SDS011;3087;48.392;10.836;2022-12-28T11:53:01;2.90;;;2.20;;
6113;SDS011;3087;48.392;10.836;2022-12-28T11:55:36;3.20;;;2.08;;
6113;SDS011;3087;48.392;10.836;2022-12-28T12:00:54;2.92;;;1.40;;
6113;SDS011;3087;48.392;10.836;2022-12-28T12:04:00;4.55;;;2.00;;
6113;SDS011;3087;48.392;10.836;2022-12-28T12:11:56;2.03;;;1.80;;
6113;SDS011;3087;48.392;10.836;2022-12-28T12:17:01;3.00;;;1.80;;
6113;SDS011;3087;48.392;10.836;2022-12-28T12:19:33;2.83;;;1.80;;
6113;SDS011;3087;48.392;10.836;2022-12-28T12:22:02;1.65;;;1.45;;
6113;SDS011;3087;48.392;10.836;2022-12-28T12:27:20;2.08;;;1.40;;
6113;SDS011;3087;48.392;10.836;2022-12-28T12:30:01;3.53;;;2.35;;
6113;SDS011;3087;48.392;10.836;2022-12-28T12:35:00;2.55;;;1.90;;
6113;SDS011;3087;48.392;10.836;2022-12-28T12:40:13;4.53;;;2.25;;
6113;SDS011;3087;48.392;10.836;2022-12-28T12:51:32;2.20;;;1.88;;
6113;SDS011;3087;48.392;10.836;2022-12-28T12:54:06;2.90;;;1.50;;
6113;SDS011;3087;48.392;10.836;2022-12-28T12:57:02;1.50;;;1.40;;
6113;SDS011;3087;48.392;10.836;2022-12-28T13:05:20;1.65;;;1.48;;
6113;SDS011;3087;48.392;10.836;2022-12-28T13:07:48;2.63;;;1.90;;
6113;SDS011;3087;48.392;10.836;2022-12-28T13:10:39;2.53;;;1.70;;
6113;SDS011;3087;48.392;10.836;2022-12-28T13:13:12;3.20;;;1.60;;
6113;SDS011;3087;48.392;10.836;2022-12-28T13:15:44;1.83;;;1.52;;
6113;SDS011;3087;48.392;10.836;2022-12-28T13:18:16;3.88;;;1.77;;
6113;SDS011;3087;48.392;10.836;2022-12-28T13:23:22;2.65;;;1.50;;
6113;SDS011;3087;48.392;10.836;2022-12-28T13:25:50;3.25;;;1.55;;
6113;SDS011;3087;48.392;10.836;2022-12-28T13:28:19;1.80;;;1.40;;
6113;SDS011;3087;48.392;10.836;2022-12-28T13:30:57;3.53;;;1.77;;
6113;SDS011;3087;48.392;10.836;2022-12-28T13:33:23;2.10;;;1.60;;
6113;SDS011;3087;48.392;10.836;2022-12-28T13:35:49;2.63;;;1.50;;
6113;SDS011;3087;48.392;10.836;2022-12-28T13:38:15;2.80;;;1.70;;
6113;SDS011;3087;48.392;10.836;2022-12-28T13:40:49;3.78;;;1.70;;
6113;SDS011;3087;48.392;10.836;2022-12-28T13:46:16;2.50;;;1.48;;
6113;SDS011;3087;48.392;10.836;2022-12-28T13:48:44;1.90;;;1.63;;
6113;SDS011;3087;48.392;10.836;2022-12-28T13:51:14;1.75;;;1.50;;
6113;SDS011;3087;48.392;10.836;2022-12-28T13:53:44;3.45;;;1.70;;
6113;SDS011;3087;48.392;10.836;2022-12-28T13:56:13;4.68;;;2.00;;
6113;SDS011;3087;48.392;10.836;2022-12-28T13:59:14;4.38;;;1.90;;
6113;SDS011;3087;48.392;10.836;2022-12-28T14:01:35;2.83;;;1.80;;
6113;SDS011;3087;48.392;10.836;2022-12-28T14:04:09;4.75;;;2.17;;
6113;SDS011;3087;48.392;10.836;2022-12-28T14:06:38;1.83;;;1.60;;
6113;SDS011;3087;48.392;10.836;2022-12-28T14:09:05;2.10;;;1.80;;
6113;SDS011;3087;48.392;10.836;2022-12-28T14:11:38;2.80;;;1.77;;
6113;SDS011;3087;48.392;10.836;2022-12-28T14:14:09;2.60;;;1.88;;
6113;SDS011;3087;48.392;10.836;2022-12-28T14:16:36;2.88;;;1.83;;
6113;SDS011;3087;48.392;10.836;2022-12-28T14:19:03;2.97;;;1.73;;
6113;SDS011;3087;48.392;10.836;2022-12-28T14:21:33;2.00;;;1.77;;
6113;SDS011;3087;48.392;10.836;2022-12-28T14:24:01;2.95;;;1.80;;
6113;SDS011;3087;48.392;10.836;2022-12-28T14:26:28;1.95;;;1.80;;
6113;SDS011;3087;48.392;10.836;2022-12-28T14:28:54;2.15;;;1.73;;
6113;SDS011;3087;48.392;10.836;2022-12-28T14:31:21;2.47;;;1.85;;
6113;SDS011;3087;48.392;10.836;2022-12-28T14:33:51;2.13;;;1.67;;
6113;SDS011;3087;48.392;10.836;2022-12-28T14:36:26;3.35;;;1.70;;
6113;SDS011;3087;48.392;10.836;2022-12-28T14:38:55;1.58;;;1.48;;
6113;SDS011;3087;48.392;10.836;2022-12-28T14:41:44;3.35;;;1.60;;
6113;SDS011;3087;48.392;10.836;2022-12-28T14:44:16;2.92;;;1.88;;
6113;SDS011;3087;48.392;10.836;2022-12-28T14:47:31;1.92;;;1.60;;
6113;SDS011;3087;48.392;10.836;2022-12-28T14:50:16;2.60;;;1.90;;
6113;SDS011;3087;48.392;10.836;2022-12-28T14:52:47;3.28;;;1.83;;
6113;SDS011;3087;48.392;10.836;2022-12-28T14:55:21;2.78;;;1.60;;
6113;SDS011;3087;48.392;10.836;2022-12-28T14:57:51;3.97;;;1.80;;
6113;SDS011;3087;48.392;10.836;2022-12-28T15:00:22;2.65;;;1.70;;
6113;SDS011;3087;48.392;10.836;2022-12-28T15:02:56;2.33;;;1.70;;
6113;SDS011;3087;48.392;10.836;2022-12-28T15:05:37;2.45;;;1.77;;
6113;SDS011;3087;48.392;10.836;2022-12-28T15:08:05;3.72;;;1.88;;
6113;SDS011;3087;48.392;10.836;2022-12-28T15:10:33;2.85;;;1.75;;
6113;SDS011;3087;48.392;10.836;2022-12-28T15:13:01;1.93;;;1.67;;
6113;SDS011;3087;48.392;10.836;2022-12-28T15:15:27;3.33;;;2.20;;
6113;SDS011;3087;48.392;10.836;2022-12-28T15:17:52;9.07;;;3.60;;
6113;SDS011;3087;48.392;10.836;2022-12-28T15:20:18;3.70;;;2.53;;
6113;SDS011;3087;48.392;10.836;2022-12-28T15:22:46;3.90;;;2.28;;
6113;SDS011;3087;48.392;10.836;2022-12-28T15:25:12;4.57;;;2.37;;
6113;SDS011;3087;48.392;10.836;2022-12-28T15:27:38;4.43;;;2.43;;
6113;SDS011;3087;48.392;10.836;2022-12-28T15:30:03;3.37;;;2.50;;
6113;SDS011;3087;48.392;10.836;2022-12-28T15:32:29;4.90;;;2.60;;
6113;SDS011;3087;48.392;10.836;2022-12-28T15:34:55;3.70;;;1.90;;
6113;SDS011;3087;48.392;10.836;2022-12-28T15:37:21;2.28;;;1.92;;
6113;SDS011;3087;48.392;10.836;2022-12-28T15:39:47;3.43;;;2.47;;
6113;SDS011;3087;48.392;10.836;2022-12-28T15:42:12;5.37;;;2.20;;
6113;SDS011;3087;48.392;10.836;2022-12-28T15:44:38;4.47;;;2.07;;
6113;SDS011;3087;48.392;10.836;2022-12-28T15:47:04;5.43;;;2.00;;
6113;SDS011;3087;48.392;10.836;2022-12-28T15:49:29;2.90;;;2.10;;
6113;SDS011;3087;48.392;10.836;2022-12-28T15:51:55;3.47;;;2.30;;
6113;SDS011;3087;48.392;10.836;2022-12-28T15:54:21;2.10;;;1.90;;
6113;SDS011;3087;48.392;10.836;2022-12-28T15:56:50;2.87;;;2.20;;
6113;SDS011;3087;48.392;10.836;2022-12-28T15:59:17;3.17;;;2.40;;
6113;SDS011;3087;48.392;10.836;2022-12-28T16:01:43;2.80;;;2.40;;
6113;SDS011;3087;48.392;10.836;2022-12-28T16:04:10;2.83;;;2.33;;
6113;SDS011;3087;48.392;10.836;2022-12-28T16:06:36;2.40;;;2.20;;
6113;SDS011;3087;48.392;10.836;2022-12-28T16:09:02;2.33;;;1.93;;
6113;SDS011;3087;48.392;10.836;2022-12-28T16:11:28;2.40;;;1.93;;
6113;SDS011;3087;48.392;10.836;2022-12-28T16:13:58;3.07;;;1.80;;
6113;SDS011;3087;48.392;10.836;2022-12-28T16:16:26;4.50;;;2.63;;
6113;SDS011;3087;48.392;10.836;2022-12-28T16:18:54;4.23;;;2.70;;
6113;SDS011;3087;48.392;10.836;2022-12-28T16:21:26;5.00;;;3.10;;
6113;SDS011;3087;48.392;10.836;2022-12-28T16:23:52;4.37;;;2.43;;
6113;SDS011;3087;48.392;10.836;2022-12-28T16:26:18;2.67;;;2.10;;
6113;SDS011;3087;48.392;10.836;2022-12-28T16:28:44;4.33;;;2.10;;
6113;SDS011;3087;48.392;10.836;2022-12-28T16:31:26;3.07;;;2.07;;
6113;SDS011;3087;48.392;10.836;2022-12-28T16:34:02;3.20;;;2.20;;
6113;SDS011;3087;48.392;10.836;2022-12-28T16:36:36;3.77;;;2.40;;
6113;SDS011;3087;48.392;10.836;2022-12-28T16:39:05;3.57;;;3.00;;
6113;SDS011;3087;48.392;10.836;2022-12-28T16:41:33;5.27;;;2.87;;
6113;SDS011;3087;48.392;10.836;2022-12-28T16:44:12;3.23;;;2.60;;
6113;SDS011;3087;48.392;10.836;2022-12-28T16:46:39;3.27;;;2.90;;
6113;SDS011;3087;48.392;10.836;2022-12-28T16:49:10;5.73;;;3.00;;
6113;SDS011;3087;48.392;10.836;2022-12-28T16:51:40;6.00;;;3.03;;
6113;SDS011;3087;48.392;10.836;2022-12-28T16:54:09;5.40;;;3.00;;